Time;durP1;ratioP1;P1;durP2;ratioP2;P2;SDS_P1;SDS_P2;PMS_P1;PMS_P2;Temp;Humidity;BMP_temperature;BMP_pressure;BME280_temperature;BME280_humidity;BME280_pressure;Samples;Min_cycle;Max_cycle;Signal;HPM_P1;HPM_P2
2023/04/17 00:00:38;;;;;;;0.10;0.10;;;21.80;41.00;;;;;;4999592;28;20171;-60
2023/04/17 00:03:05;;;;;;;0.47;0.22;;;21.80;41.00;;;;;;4994975;28;20058;-60
2023/04/17 00:05:32;;;;;;;0.20;0.20;;;21.70;40.90;;;;;;4998350;28;20140;-60
2023/04/17 00:07:59;;;;;;;0.30;0.30;;;21.70;40.90;;;;;;5001623;28;20146;-60
2023/04/17 00:10:27;;;;;;;0.22;0.22;;;21.70;40.90;;;;;;5003671;28;20136;-60
2023/04/17 00:12:54;;;;;;;0.32;0.25;;;21.80;41.00;;;;;;4992097;28;20050;-61
2023/04/17 00:15:21;;;;;;;0.20;0.20;;;21.80;41.00;;;;;;4996075;28;20046;-60
2023/04/17 00:17:48;;;;;;;0.40;0.15;;;21.80;40.90;;;;;;4996054;28;20528;-60
2023/04/17 00:20:15;;;;;;;0.10;0.10;;;21.80;40.90;;;;;;4993372;28;20129;-61
2023/04/17 00:22:43;;;;;;;0.20;0.20;;;21.80;40.90;;;;;;4998872;28;20482;-60
2023/04/17 00:25:13;;;;;;;0.20;0.20;;;21.80;40.90;;;;;;4998771;28;20042;-60
2023/04/17 00:27:41;;;;;;;0.10;0.10;;;21.80;40.90;;;;;;4993343;28;20054;-60
2023/04/17 00:30:09;;;;;;;0.30;0.22;;;21.80;40.90;;;;;;4992555;28;20046;-60
2023/04/17 00:32:36;;;;;;;0.13;0.13;;;21.80;40.90;;;;;;4996664;28;20054;-60
2023/04/17 00:35:04;;;;;;;0.10;0.10;;;21.80;40.90;;;;;;4997132;28;20054;-60
2023/04/17 00:37:31;;;;;;;0.17;0.17;;;21.80;40.90;;;;;;4995265;28;20425;-60
2023/04/17 00:39:58;;;;;;;0.22;0.22;;;21.80;40.90;;;;;;4993387;28;20050;-63
2023/04/17 00:42:25;;;;;;;0.40;0.40;;;21.80;41.00;;;;;;5002942;28;20054;-60
2023/04/17 00:44:53;;;;;;;0.30;0.30;;;21.80;40.90;;;;;;5001558;28;20078;-60
2023/04/17 00:47:21;;;;;;;0.30;0.30;;;21.80;41.00;;;;;;5000786;28;20058;-60
2023/04/17 00:49:49;;;;;;;0.17;0.17;;;21.70;40.90;;;;;;5007762;28;20490;-60
2023/04/17 00:52:26;;;;;;;0.68;0.20;;;21.80;41.00;;;;;;5005212;28;20058;-61
2023/04/17 00:54:54;;;;;;;0.15;0.15;;;21.70;40.90;;;;;;5001979;28;20060;-60
2023/04/17 00:57:23;;;;;;;0.20;0.20;;;21.80;41.00;;;;;;5002574;28;20050;-60
2023/04/17 00:59:50;;;;;;;0.30;0.30;;;21.80;41.00;;;;;;5003354;28;20053;-60
2023/04/17 01:02:17;;;;;;;0.25;0.25;;;21.80;41.00;;;;;;4998411;28;20074;-60
2023/04/17 01:04:45;;;;;;;0.10;0.10;;;21.70;41.00;;;;;;5000880;28;20141;-60
2023/04/17 01:07:12;;;;;;;0.20;0.20;;;21.80;41.00;;;;;;5002491;28;20047;-61
2023/04/17 01:09:40;;;;;;;0.30;0.30;;;21.70;41.00;;;;;;4996061;28;20069;-60
2023/04/17 01:12:18;;;;;;;0.15;0.15;;;21.70;41.00;;;;;;5003661;28;20088;-61
2023/04/17 01:14:46;;;;;;;0.30;0.30;;;21.80;41.00;;;;;;5002268;28;20061;-60
2023/04/17 01:17:14;;;;;;;0.13;0.13;;;21.70;41.00;;;;;;4998687;28;20081;-61
2023/04/17 01:19:41;;;;;;;0.20;0.20;;;21.70;41.00;;;;;;5001252;28;20050;-60
2023/04/17 01:22:08;;;;;;;0.10;0.10;;;21.70;41.00;;;;;;5004400;28;20064;-60
2023/04/17 01:24:35;;;;;;;0.30;0.20;;;21.70;41.00;;;;;;4984153;28;20054;-60
2023/04/17 01:27:03;;;;;;;0.28;0.28;;;21.70;41.00;;;;;;5002262;28;20049;-60
2023/04/17 01:29:31;;;;;;;0.10;0.10;;;21.70;41.00;;;;;;5000696;28;20056;-60
2023/04/17 01:31:58;;;;;;;0.10;0.10;;;21.70;41.00;;;;;;5008181;28;20058;-60
2023/04/17 01:34:25;;;;;;;0.30;0.30;;;21.70;41.00;;;;;;5003111;28;20057;-61
2023/04/17 01:36:52;;;;;;;0.10;0.10;;;21.70;41.00;;;;;;5000239;28;20053;-60
2023/04/17 01:39:20;;;;;;;0.20;0.20;;;21.70;41.00;;;;;;5003055;28;20141;-60
2023/04/17 01:41:47;;;;;;;0.30;0.30;;;21.70;41.00;;;;;;4999644;28;20073;-60
2023/04/17 01:44:15;;;;;;;0.10;0.10;;;21.70;41.10;;;;;;5001079;28;20145;-61
2023/04/17 01:46:42;;;;;;;0.47;0.30;;;21.70;41.10;;;;;;4995947;28;20529;-61
2023/04/17 01:49:09;;;;;;;0.10;0.10;;;21.70;41.00;;;;;;5000250;28;20058;-63
2023/04/17 01:51:36;;;;;;;0.50;0.28;;;21.70;41.00;;;;;;4998951;28;20090;-61
2023/04/17 01:54:05;;;;;;;0.20;0.20;;;21.70;41.00;;;;;;5003710;28;20054;-60
2023/04/17 01:56:32;;;;;;;0.35;0.20;;;21.70;41.10;;;;;;4997374;28;20050;-60
2023/04/17 01:58:59;;;;;;;0.30;0.30;;;21.70;41.00;;;;;;5001253;28;21355;-60
2023/04/17 02:01:26;;;;;;;0.20;0.20;;;21.70;41.00;;;;;;5000535;28;20047;-61
2023/04/17 02:03:53;;;;;;;0.20;0.15;;;21.70;41.00;;;;;;4998940;28;20561;-61
2023/04/17 02:06:21;;;;;;;0.10;0.10;;;21.70;41.10;;;;;;4998227;28;20403;-61
2023/04/17 02:08:48;;;;;;;0.20;0.20;;;21.70;41.10;;;;;;4999285;28;20046;-61
2023/04/17 02:11:15;;;;;;;0.15;0.15;;;21.70;41.10;;;;;;4999361;28;20491;-61
2023/04/17 02:13:42;;;;;;;0.20;0.20;;;21.70;41.10;;;;;;4994505;28;20093;-60
2023/04/17 02:16:11;;;;;;;0.20;0.20;;;21.70;41.10;;;;;;4996369;28;20050;-60
2023/04/17 02:18:39;;;;;;;0.17;0.17;;;21.70;41.10;;;;;;4999328;28;20069;-60
2023/04/17 02:21:08;;;;;;;0.30;0.30;;;21.70;41.00;;;;;;4999963;28;20046;-60
2023/04/17 02:23:35;;;;;;;0.20;0.20;;;21.70;41.00;;;;;;5007092;28;20053;-60
2023/04/17 02:26:03;;;;;;;0.35;0.30;;;21.70;41.10;;;;;;5003583;28;20145;-60
2023/04/17 02:28:30;;;;;;;0.20;0.20;;;21.70;41.00;;;;;;4996312;28;20047;-61
2023/04/17 02:30:58;;;;;;;0.20;0.20;;;21.70;41.00;;;;;;4997813;28;20050;-60
2023/04/17 02:33:25;;;;;;;0.20;0.10;;;21.70;41.10;;;;;;5000446;28;20061;-60
2023/04/17 02:35:52;;;;;;;0.30;0.20;;;21.70;41.60;;;;;;5001947;28;20054;-60
2023/04/17 02:38:20;;;;;;;0.40;0.40;;;21.70;41.00;;;;;;5000887;28;20081;-60
2023/04/17 02:40:47;;;;;;;0.20;0.20;;;21.70;41.00;;;;;;4998153;28;20128;-60
2023/04/17 02:43:16;;;;;;;0.30;0.30;;;21.70;41.10;;;;;;4998113;28;20054;-60
2023/04/17 02:45:43;;;;;;;0.30;0.30;;;21.70;41.10;;;;;;4997441;28;20058;-60
2023/04/17 02:48:11;;;;;;;0.10;0.10;;;21.70;41.10;;;;;;4998598;28;20042;-60
2023/04/17 02:50:38;;;;;;;0.10;0.10;;;21.70;41.10;;;;;;4992246;28;20058;-60
2023/04/17 02:53:05;;;;;;;0.20;0.20;;;21.70;41.10;;;;;;4997294;28;20513;-61
2023/04/17 02:55:33;;;;;;;0.20;0.20;;;21.70;41.10;;;;;;4999404;28;20054;-60
2023/04/17 02:58:00;;;;;;;0.45;0.45;;;21.70;41.20;;;;;;4999077;28;20486;-61
2023/04/17 03:00:28;;;;;;;0.10;0.10;;;21.70;41.10;;;;;;4998517;28;20053;-61
2023/04/17 03:02:55;;;;;;;0.13;0.13;;;21.70;41.20;;;;;;4996204;28;20069;-60
2023/04/17 03:05:23;;;;;;;0.20;0.20;;;21.60;41.10;;;;;;4997013;28;20125;-62
2023/04/17 03:07:50;;;;;;;0.20;0.13;;;21.60;41.10;;;;;;4998994;28;20064;-61
2023/04/17 03:10:18;;;;;;;0.20;0.20;;;21.70;41.10;;;;;;5003906;28;20089;-62
2023/04/17 03:12:45;;;;;;;0.25;0.20;;;21.60;41.10;;;;;;4995942;28;20121;-61
2023/04/17 03:15:12;;;;;;;0.13;0.13;;;21.60;41.10;;;;;;4999720;28;20056;-62
2023/04/17 03:17:39;;;;;;;0.30;0.30;;;21.60;41.10;;;;;;4997089;28;20056;-62
2023/04/17 03:20:07;;;;;;;0.10;0.10;;;21.60;41.10;;;;;;4993227;28;20058;-60
2023/04/17 03:22:35;;;;;;;0.52;0.30;;;21.60;41.10;;;;;;4995879;28;20060;-60
2023/04/17 03:25:03;;;;;;;0.38;0.10;;;21.60;41.10;;;;;;4995836;28;20414;-60
2023/04/17 03:27:31;;;;;;;1.15;0.57;;;21.60;41.10;;;;;;4996539;28;20050;-61
2023/04/17 03:29:58;;;;;;;0.20;0.20;;;21.60;41.10;;;;;;5002275;28;20136;-61
2023/04/17 03:32:26;;;;;;;0.20;0.20;;;21.60;41.10;;;;;;5000772;28;20548;-61
2023/04/17 03:34:53;;;;;;;0.10;0.10;;;21.60;41.10;;;;;;4995278;28;20058;-61
2023/04/17 03:37:21;;;;;;;0.10;0.10;;;21.60;41.10;;;;;;4998520;28;20056;-61
2023/04/17 03:39:48;;;;;;;0.30;0.10;;;21.60;41.10;;;;;;4996779;28;20513;-61
2023/04/17 03:42:15;;;;;;;0.10;0.10;;;21.60;41.10;;;;;;4997243;28;20482;-61
2023/04/17 03:44:43;;;;;;;0.10;0.10;;;21.60;41.10;;;;;;4996542;28;20121;-64
2023/04/17 03:47:10;;;;;;;0.20;0.20;;;21.60;41.10;;;;;;4996983;28;20141;-62
2023/04/17 03:49:37;;;;;;;0.10;0.10;;;21.60;41.10;;;;;;4997284;28;20394;-61
2023/04/17 03:52:05;;;;;;;0.47;0.40;;;21.60;41.10;;;;;;4999336;28;20494;-61
2023/04/17 03:54:34;;;;;;;0.20;0.20;;;21.60;41.10;;;;;;4997013;28;20056;-62
2023/04/17 03:57:02;;;;;;;0.20;0.20;;;21.60;41.10;;;;;;4998754;28;20560;-61
2023/04/17 03:59:30;;;;;;;0.30;0.30;;;21.60;41.10;;;;;;4992812;28;20052;-61
2023/04/17 04:01:57;;;;;;;0.20;0.20;;;21.60;41.10;;;;;;4997847;28;20136;-62
2023/04/17 04:04:25;;;;;;;0.17;0.17;;;21.60;41.10;;;;;;4995898;28;20133;-62
2023/04/17 04:06:56;;;;;;;0.20;0.20;;;21.60;41.10;;;;;;4994260;28;20105;-62
2023/04/17 04:09:27;;;;;;;0.10;0.10;;;21.60;41.10;;;;;;4998042;28;20077;-62
2023/04/17 04:11:54;;;;;;;0.17;0.17;;;21.60;41.10;;;;;;4995229;28;20046;-62
2023/04/17 04:14:21;;;;;;;0.30;0.30;;;21.60;41.10;;;;;;4997959;28;20072;-59
2023/04/17 04:16:48;;;;;;;0.10;0.10;;;21.60;41.10;;;;;;5002174;28;20096;-62
2023/04/17 04:19:16;;;;;;;0.10;0.10;;;21.60;41.10;;;;;;4998551;28;20065;-62
2023/04/17 04:21:43;;;;;;;0.15;0.10;;;21.60;41.10;;;;;;5002324;28;20141;-62
2023/04/17 04:24:12;;;;;;;0.20;0.20;;;21.60;41.10;;;;;;5005239;28;20053;-61
2023/04/17 04:26:42;;;;;;;0.17;0.17;;;21.60;41.10;;;;;;5002581;28;20054;-62
2023/04/17 04:29:10;;;;;;;0.20;0.20;;;21.70;41.10;;;;;;5003042;28;20057;-62
2023/04/17 04:31:38;;;;;;;0.20;0.20;;;21.70;41.10;;;;;;4999087;28;20046;-62
2023/04/17 04:34:06;;;;;;;0.28;0.28;;;21.60;41.00;;;;;;5000997;28;20143;-62
2023/04/17 04:36:35;;;;;;;0.20;0.20;;;21.70;41.00;;;;;;4997957;28;20046;-61
2023/04/17 04:39:05;;;;;;;0.28;0.28;;;21.70;41.00;;;;;;5004154;28;20042;-61
2023/04/17 04:41:32;;;;;;;;;;;21.70;40.90;;;;;;5000083;28;20050;-61
2023/04/17 04:44:00;;;;;;;0.43;0.40;;;21.60;40.90;;;;;;5002460;28;20381;-62
2023/04/17 04:46:27;;;;;;;0.40;0.40;;;21.60;40.90;;;;;;5000186;28;20513;-61
2023/04/17 04:48:54;;;;;;;0.30;0.30;;;21.60;40.90;;;;;;5000590;28;20056;-62
2023/04/17 04:51:22;;;;;;;0.45;0.45;;;21.60;40.90;;;;;;4999183;28;20049;-62
2023/04/17 04:53:49;;;;;;;0.57;0.57;;;21.60;41.00;;;;;;5002524;28;20058;-61
2023/04/17 04:56:16;;;;;;;0.95;0.82;;;21.60;40.90;;;;;;5002956;28;20090;-61
2023/04/17 04:58:43;;;;;;;0.30;0.30;;;21.60;40.90;;;;;;5002425;28;20042;-62
2023/04/17 05:01:10;;;;;;;0.40;0.40;;;21.60;40.80;;;;;;5002406;28;20050;-62
2023/04/17 05:03:39;;;;;;;0.82;0.50;;;21.70;40.80;;;;;;5001128;28;20084;-61
2023/04/17 05:06:08;;;;;;;0.40;0.40;;;21.70;40.80;;;;;;5001205;28;20404;-61
2023/04/17 05:08:35;;;;;;;0.50;0.50;;;21.70;40.70;;;;;;5001386;28;20413;-61
2023/04/17 05:11:03;;;;;;;1.15;0.80;;;21.70;40.70;;;;;;4999511;28;20053;-61
2023/04/17 05:13:30;;;;;;;0.50;0.50;;;21.70;40.60;;;;;;5000151;28;20116;-63
2023/04/17 05:15:57;;;;;;;0.80;0.50;;;21.70;40.60;;;;;;5002063;28;20049;-61
2023/04/17 05:18:27;;;;;;;0.52;0.50;;;21.70;40.60;;;;;;4997020;28;20054;-61
2023/04/17 05:20:54;;;;;;;1.17;0.63;;;21.80;40.60;;;;;;5002199;28;20042;-59
2023/04/17 05:23:21;;;;;;;0.57;0.57;;;21.80;40.60;;;;;;4997758;28;20068;-61
2023/04/17 05:25:49;;;;;;;0.88;0.88;;;21.80;40.60;;;;;;4999606;28;20159;-60
2023/04/17 05:28:17;;;;;;;3.60;1.73;;;21.80;40.60;;;;;;4999899;28;20061;-60
2023/04/17 05:30:44;;;;;;;1.60;1.48;;;21.90;40.60;;;;;;5000247;28;20050;-61
2023/04/17 05:33:11;;;;;;;0.90;0.90;;;21.90;40.60;;;;;;5000811;28;20407;-63
2023/04/17 05:35:39;;;;;;;2.08;0.95;;;21.90;40.40;;;;;;4997073;28;20054;-60
2023/04/17 05:40:33;;;;;;;1.00;0.90;;;21.90;40.60;;;;;;4997354;28;20054;-60
2023/04/17 05:43:08;;;;;;;0.82;0.80;;;22.00;40.60;;;;;;4999837;28;20410;-59
2023/04/17 05:45:36;;;;;;;2.17;0.90;;;22.00;40.60;;;;;;4997518;28;20096;-60
2023/04/17 05:48:03;;;;;;;2.65;0.73;;;22.00;40.60;;;;;;4993832;28;20046;-59
2023/04/17 05:50:30;;;;;;;11.02;3.28;;;22.00;40.60;;;;;;4998720;28;20049;-59
2023/04/17 05:52:58;;;;;;;1.35;1.00;;;22.00;40.90;;;;;;4996866;28;20136;-59
2023/04/17 05:55:25;;;;;;;1.13;1.02;;;22.10;41.00;;;;;;4996119;28;20061;-59
2023/04/17 05:57:52;;;;;;;1.10;1.00;;;22.10;40.90;;;;;;5009667;28;20129;-59
2023/04/17 06:00:22;;;;;;;1.27;1.00;;;22.10;40.70;;;;;;5000087;28;20060;-59
2023/04/17 06:02:51;;;;;;;2.58;1.20;;;22.20;40.80;;;;;;4996666;28;20046;-59
2023/04/17 06:05:18;;;;;;;1.17;1.00;;;22.20;40.80;;;;;;4996596;28;20050;-58
2023/04/17 06:07:45;;;;;;;3.15;1.63;;;22.20;40.90;;;;;;4997395;28;20093;-59
2023/04/17 06:10:13;;;;;;;1.13;1.02;;;22.20;40.90;;;;;;4998492;28;20053;-58
2023/04/17 06:12:40;;;;;;;2.30;1.17;;;22.30;41.00;;;;;;4995745;28;20053;-58
2023/04/17 06:15:08;;;;;;;2.65;1.00;;;22.30;41.00;;;;;;4999021;28;20053;-58
2023/04/17 06:17:36;;;;;;;3.10;1.30;;;22.30;41.10;;;;;;4997890;28;20049;-59
2023/04/17 06:20:09;;;;;;;1.80;1.10;;;22.30;41.70;;;;;;4998603;28;20069;-59
2023/04/17 06:22:40;;;;;;;2.97;1.10;;;22.40;41.20;;;;;;4995408;28;20112;-58
2023/04/17 06:25:09;;;;;;;3.45;1.10;;;22.40;41.30;;;;;;4992390;28;20511;-59
2023/04/17 06:27:36;;;;;;;1.48;1.00;;;22.40;41.30;;;;;;4997289;28;20061;-58
2023/04/17 06:30:05;;;;;;;1.10;1.00;;;22.50;41.40;;;;;;4995356;28;20053;-59
2023/04/17 06:32:32;;;;;;;0.85;0.85;;;22.50;41.40;;;;;;4999475;28;20046;-59
2023/04/17 06:34:59;;;;;;;1.88;1.23;;;22.60;41.50;;;;;;4995686;28;20071;-59
2023/04/17 06:37:27;;;;;;;1.20;1.08;;;22.60;41.40;;;;;;4998680;28;20057;-61
2023/04/17 06:39:55;;;;;;;1.83;1.15;;;22.60;41.50;;;;;;4995405;28;20104;-63
2023/04/17 06:42:29;;;;;;;3.92;1.30;;;22.70;41.50;;;;;;4997142;28;20058;-60
2023/04/17 06:44:59;;;;;;;1.63;1.13;;;22.70;41.40;;;;;;4997395;28;20516;-66
2023/04/17 06:47:26;;;;;;;1.30;1.20;;;22.80;41.40;;;;;;4996261;28;20096;-60
2023/04/17 06:49:53;;;;;;;1.45;1.20;;;22.80;41.40;;;;;;4997510;28;20068;-59
2023/04/17 06:52:21;;;;;;;2.55;1.40;;;22.90;41.30;;;;;;4995923;28;20061;-61
2023/04/17 06:54:48;;;;;;;3.65;1.20;;;22.90;41.20;;;;;;4994306;28;20058;-60
2023/04/17 06:57:15;;;;;;;1.27;1.17;;;22.90;41.20;;;;;;4994719;28;20050;-61
2023/04/17 06:59:43;;;;;;;1.45;1.33;;;22.90;41.20;;;;;;4998833;28;20553;-61
2023/04/17 07:02:10;;;;;;;1.52;1.40;;;23.00;41.20;;;;;;4994745;28;20556;-60
2023/04/17 07:04:38;;;;;;;2.45;1.27;;;23.00;41.10;;;;;;4995053;28;20152;-61
2023/04/17 07:07:05;;;;;;;1.30;1.23;;;23.00;41.10;;;;;;4993996;28;21583;-61
2023/04/17 07:09:32;;;;;;;1.52;1.42;;;23.00;41.10;;;;;;4992806;28;20045;-59
2023/04/17 07:12:00;;;;;;;2.45;1.45;;;23.00;41.00;;;;;;4994558;28;20058;-58
2023/04/17 07:14:27;;;;;;;1.55;1.02;;;23.10;41.00;;;;;;4996877;28;20050;-59
2023/04/17 07:16:55;;;;;;;1.40;1.30;;;23.10;40.90;;;;;;4996560;28;20065;-58
2023/04/17 07:19:22;;;;;;;1.30;1.20;;;23.10;40.80;;;;;;4996347;28;21496;-58
2023/04/17 07:21:49;;;;;;;1.52;1.42;;;23.10;40.70;;;;;;4994999;28;20054;-58
2023/04/17 07:24:16;;;;;;;1.33;1.20;;;23.10;40.50;;;;;;4995126;28;20041;-59
2023/04/17 07:26:44;;;;;;;1.50;1.40;;;23.10;40.50;;;;;;4992031;28;20045;-61
2023/04/17 07:29:11;;;;;;;1.92;1.42;;;23.20;40.40;;;;;;4993186;28;20050;-60
2023/04/17 07:31:38;;;;;;;1.48;1.38;;;23.20;40.40;;;;;;4994739;28;20046;-61
2023/04/17 07:34:05;;;;;;;1.05;1.00;;;23.20;40.40;;;;;;4994066;28;20092;-59
2023/04/17 07:36:34;;;;;;;1.85;1.40;;;23.30;40.40;;;;;;4995613;28;20149;-58
2023/04/17 07:39:02;;;;;;;1.40;1.30;;;23.30;40.40;;;;;;4991947;28;20409;-59
2023/04/17 07:41:29;;;;;;;7.57;1.80;;;23.30;40.40;;;;;;4995443;28;20498;-59
2023/04/17 07:43:56;;;;;;;1.70;1.48;;;23.30;40.40;;;;;;4998917;28;20045;-59
2023/04/17 07:46:25;;;;;;;1.55;1.45;;;23.30;40.30;;;;;;4998325;28;20726;-59
2023/04/17 07:48:53;;;;;;;1.35;1.25;;;23.30;40.20;;;;;;4997762;28;20054;-59
2023/04/17 07:51:20;;;;;;;1.85;1.75;;;23.30;40.20;;;;;;4994950;28;20148;-58
2023/04/17 07:53:47;;;;;;;2.15;1.35;;;23.30;40.30;;;;;;4998160;28;20562;-59
2023/04/17 07:56:16;;;;;;;1.55;1.45;;;23.40;40.30;;;;;;4999692;28;20056;-59
2023/04/17 07:58:50;;;;;;;2.13;1.95;;;23.40;40.30;;;;;;4995042;28;20046;-58
2023/04/17 08:01:17;;;;;;;2.15;1.73;;;23.40;40.30;;;;;;4993088;28;20641;-61
2023/04/17 08:03:44;;;;;;;1.83;1.70;;;23.40;40.40;;;;;;4997521;28;20061;-59
2023/04/17 08:06:12;;;;;;;1.50;1.40;;;23.40;40.40;;;;;;5001412;28;20053;-60
2023/04/17 08:08:39;;;;;;;3.10;2.00;;;23.50;40.50;;;;;;5003107;28;20157;-60
2023/04/17 08:11:07;;;;;;;4.35;1.92;;;23.50;40.60;;;;;;4999972;28;20049;-58
2023/04/17 08:13:34;;;;;;;1.70;1.60;;;23.50;40.60;;;;;;5000522;28;20417;-60
2023/04/17 08:16:01;;;;;;;3.75;2.00;;;23.60;40.60;;;;;;4999872;28;20516;-60
2023/04/17 08:18:28;;;;;;;3.45;1.58;;;23.60;40.70;;;;;;5001948;28;20050;-60
2023/04/17 08:20:55;;;;;;;1.85;1.50;;;23.60;40.60;;;;;;5000475;28;20053;-60
2023/04/17 08:23:23;;;;;;;1.90;1.70;;;23.70;40.50;;;;;;5000409;28;20045;-59
2023/04/17 08:25:51;;;;;;;3.88;2.03;;;23.70;40.50;;;;;;5000631;28;20053;-60
2023/04/17 08:28:18;;;;;;;5.15;1.70;;;23.80;40.30;;;;;;5000826;28;20049;-61
2023/04/17 08:30:45;;;;;;;3.13;1.40;;;23.80;40.10;;;;;;5001656;28;20064;-60
2023/04/17 08:33:15;;;;;;;3.83;1.90;;;23.90;40.10;;;;;;5000513;28;20046;-60
2023/04/17 08:35:43;;;;;;;3.88;2.00;;;23.90;40.00;;;;;;4994972;28;20062;-60
2023/04/17 08:38:12;;;;;;;2.58;1.60;;;23.90;39.90;;;;;;5002212;28;20050;-60
2023/04/17 08:40:48;;;;;;;2.00;1.67;;;23.90;39.90;;;;;;4996111;28;20227;-59
2023/04/17 08:43:18;;;;;;;3.50;1.98;;;24.00;39.80;;;;;;4998968;28;20057;-59
2023/04/17 08:45:52;;;;;;;2.08;1.88;;;24.00;39.70;;;;;;4999410;28;20050;-58
2023/04/17 08:48:21;;;;;;;3.95;1.70;;;24.10;39.80;;;;;;4999075;28;20277;-60
2023/04/17 08:50:53;;;;;;;3.00;2.05;;;24.10;39.80;;;;;;4999043;28;20145;-60
2023/04/17 08:53:20;;;;;;;2.08;1.85;;;24.10;39.50;;;;;;4996211;28;20146;-59
2023/04/17 08:55:48;;;;;;;2.85;2.28;;;24.20;39.60;;;;;;4998638;28;20049;-58
2023/04/17 08:58:16;;;;;;;4.93;2.22;;;24.20;39.70;;;;;;5000427;28;20062;-59
2023/04/17 09:00:44;;;;;;;3.10;1.98;;;24.20;39.80;;;;;;4996678;28;20038;-60
2023/04/17 09:03:12;;;;;;;2.97;2.30;;;24.30;39.80;;;;;;5001014;28;20045;-61
2023/04/17 09:05:44;;;;;;;4.57;2.38;;;24.30;39.70;;;;;;4998019;28;20042;-59
2023/04/17 09:08:20;;;;;;;4.40;2.65;;;24.40;39.70;;;;;;4998945;28;20140;-62
2023/04/17 09:10:49;;;;;;;3.15;2.10;;;24.50;39.70;;;;;;4999327;28;20059;-58
2023/04/17 09:13:19;;;;;;;3.47;2.85;;;24.50;39.60;;;;;;4999483;28;20046;-58
2023/04/17 09:16:02;;;;;;;3.08;2.75;;;24.50;39.50;;;;;;4997685;28;20057;-60
2023/04/17 09:18:31;;;;;;;2.50;2.15;;;24.60;39.50;;;;;;4997594;28;20050;-60
2023/04/17 09:21:00;;;;;;;3.78;2.22;;;24.70;39.50;;;;;;4998937;28;20056;-60
2023/04/17 09:23:30;;;;;;;2.90;2.13;;;24.70;39.30;;;;;;4995442;28;20052;-61
2023/04/17 09:26:10;;;;;;;2.22;1.83;;;24.70;39.20;;;;;;5001728;28;20395;-62
2023/04/17 09:28:38;;;;;;;2.95;2.38;;;24.70;39.30;;;;;;4997971;28;20409;-62
2023/04/17 09:31:26;;;;;;;4.35;2.75;;;24.70;39.40;;;;;;4999866;28;20050;-63
2023/04/17 09:33:58;;;;;;;5.20;2.72;;;24.70;39.30;;;;;;4997432;28;20461;-62
2023/04/17 09:36:29;;;;;;;3.47;2.30;;;24.70;39.80;;;;;;5000120;28;20504;-63
2023/04/17 09:38:59;;;;;;;3.97;2.67;;;24.70;39.70;;;;;;5010956;28;20054;-62
2023/04/17 09:41:33;;;;;;;3.72;2.17;;;24.70;39.70;;;;;;5001457;28;20149;-62
2023/04/17 09:44:04;;;;;;;2.55;2.33;;;24.70;39.80;;;;;;4996941;28;20054;-62
2023/04/17 09:46:37;;;;;;;3.70;2.28;;;24.70;40.20;;;;;;4995279;28;20041;-62
2023/04/17 09:49:09;;;;;;;3.55;2.20;;;24.80;39.70;;;;;;5000005;28;20042;-62
2023/04/17 09:51:37;;;;;;;6.47;2.22;;;24.80;39.80;;;;;;4997884;28;20084;-63
2023/04/17 09:54:07;;;;;;;3.08;2.25;;;24.80;39.70;;;;;;5000346;28;20153;-62
2023/04/17 09:56:36;;;;;;;;;;;24.90;39.60;;;;;;4994056;28;20061;-61
2023/04/17 09:59:05;;;;;;;4.00;2.78;;;24.90;39.80;;;;;;4996361;28;19940;-61
2023/04/17 10:01:34;;;;;;;2.53;2.30;;;24.90;39.40;;;;;;4995835;28;20590;-61
2023/04/17 10:04:03;;;;;;;4.70;2.70;;;25.00;39.10;;;;;;4998776;28;20386;-62
2023/04/17 10:06:31;;;;;;;2.97;1.90;;;24.90;38.80;;;;;;5002233;28;20314;-61
2023/04/17 10:08:59;;;;;;;2.90;2.05;;;25.00;38.30;;;;;;4997410;28;20058;-61
2023/04/17 10:11:35;;;;;;;2.85;2.50;;;25.00;38.90;;;;;;5000049;28;20145;-59
2023/04/17 10:14:23;;;;;;;2.72;2.40;;;25.00;38.80;;;;;;4998599;28;20581;-59
2023/04/17 10:16:51;;;;;;;1.98;1.80;;;25.00;38.50;;;;;;5015034;28;20391;-61
2023/04/17 10:19:34;;;;;;;2.60;2.17;;;25.10;38.50;;;;;;4999360;28;20045;-60
2023/04/17 10:22:27;;;;;;;3.60;2.10;;;25.10;38.30;;;;;;4997863;28;20060;-61
2023/04/17 10:25:16;;;;;;;3.08;2.55;;;25.10;38.10;;;;;;4986833;28;20053;-62
2023/04/17 10:27:46;;;;;;;3.35;2.40;;;25.10;38.10;;;;;;5012732;28;20054;-61
2023/04/17 10:30:13;;;;;;;3.20;2.10;;;25.10;38.00;;;;;;4996925;28;20045;-60
2023/04/17 10:32:44;;;;;;;2.45;2.25;;;25.10;38.10;;;;;;4994594;28;21413;-59
2023/04/17 10:35:34;;;;;;;3.25;2.58;;;25.10;38.10;;;;;;4997723;28;20061;-59
2023/04/17 10:38:04;;;;;;;2.25;2.05;;;25.10;38.10;;;;;;5001138;28;20056;-61
2023/04/17 10:40:35;;;;;;;2.47;2.23;;;25.20;38.20;;;;;;4998695;28;20156;-60
2023/04/17 10:43:16;;;;;;;2.25;2.05;;;25.20;38.20;;;;;;4995886;28;20060;-61
2023/04/17 10:46:07;;;;;;;3.58;2.38;;;25.20;38.20;;;;;;4992500;28;20773;-59
2023/04/17 10:48:37;;;;;;;5.05;2.92;;;25.20;38.10;;;;;;4998548;28;20058;-61
2023/04/17 10:51:38;;;;;;;3.47;2.65;;;25.20;38.10;;;;;;4999586;28;20053;-61
2023/04/17 10:54:09;;;;;;;4.00;2.58;;;25.20;38.10;;;;;;4996580;28;20402;-61
2023/04/17 10:56:39;;;;;;;5.65;3.50;;;25.20;38.00;;;;;;4996582;28;20132;-60
2023/04/17 10:59:12;;;;;;;5.03;3.15;;;25.20;37.50;;;;;;4999757;28;20073;-60
2023/04/17 11:01:59;;;;;;;3.80;3.13;;;25.10;37.70;;;;;;4997405;28;20061;-60
2023/04/17 11:04:29;;;;;;;3.03;2.70;;;25.00;37.80;;;;;;4998108;28;20056;-60
2023/04/17 11:06:57;;;;;;;4.07;2.35;;;25.00;38.10;;;;;;4996901;28;20057;-60
2023/04/17 11:09:27;;;;;;;2.97;2.65;;;24.90;38.20;;;;;;4995239;28;20050;-60
2023/04/17 11:12:00;;;;;;;6.03;3.08;;;25.00;38.20;;;;;;4998724;28;20461;-60
2023/04/17 11:14:29;;;;;;;4.28;2.15;;;25.00;38.30;;;;;;4995649;28;20089;-59
2023/04/17 11:16:56;;;;;;;2.45;2.25;;;25.10;38.40;;;;;;4999575;28;20069;-59
2023/04/17 11:19:25;;;;;;;2.53;2.33;;;25.10;38.20;;;;;;4996916;28;20514;-62
2023/04/17 11:22:00;;;;;;;2.78;2.35;;;25.20;38.10;;;;;;4996254;28;20437;-61
2023/04/17 11:24:29;;;;;;;3.38;2.25;;;25.20;38.00;;;;;;5000427;28;20046;-60
2023/04/17 11:27:02;;;;;;;2.20;2.00;;;25.20;37.90;;;;;;4996097;28;20120;-61
2023/04/17 11:29:30;;;;;;;2.15;1.92;;;25.30;37.90;;;;;;4996520;28;20054;-61
2023/04/17 11:31:59;;;;;;;3.65;2.63;;;25.30;37.90;;;;;;4998009;28;20060;-61
2023/04/17 11:34:27;;;;;;;5.40;2.58;;;25.30;37.90;;;;;;4999575;28;20060;-60
2023/04/17 11:36:56;;;;;;;3.05;2.55;;;25.40;37.90;;;;;;5008821;28;20128;-60
2023/04/17 11:39:27;;;;;;;3.50;2.40;;;25.40;37.80;;;;;;4996163;28;20054;-61
2023/04/17 11:41:55;;;;;;;2.92;2.40;;;25.40;38.00;;;;;;4998285;28;20045;-61
2023/04/17 11:44:23;;;;;;;3.22;2.53;;;25.40;37.90;;;;;;5000560;28;20100;-60
2023/04/17 11:46:52;;;;;;;3.13;2.50;;;25.40;38.10;;;;;;4993444;28;20058;-61
2023/04/17 11:49:37;;;;;;;2.72;2.53;;;25.40;38.10;;;;;;4997986;28;20054;-61
2023/04/17 11:52:04;;;;;;;2.35;2.05;;;25.40;38.10;;;;;;4996737;28;20089;-60
2023/04/17 11:54:37;;;;;;;2.67;2.40;;;25.40;38.00;;;;;;4997403;28;20290;-61
2023/04/17 11:57:10;;;;;;;5.15;2.35;;;25.50;38.10;;;;;;4996667;28;20061;-61
2023/04/17 11:59:38;;;;;;;4.07;2.50;;;25.50;38.00;;;;;;4993308;28;20046;-59
2023/04/17 12:02:07;;;;;;;2.60;2.35;;;25.60;38.00;;;;;;4994759;28;20049;-60
2023/04/17 12:04:36;;;;;;;2.60;2.40;;;25.60;38.10;;;;;;4996013;28;20058;-61
2023/04/17 12:07:07;;;;;;;1.92;1.80;;;25.60;37.90;;;;;;4998271;28;20058;-61
2023/04/17 12:09:35;;;;;;;2.80;2.50;;;25.70;38.00;;;;;;4996542;28;20046;-60
2023/04/17 12:12:06;;;;;;;2.25;2.03;;;25.70;38.00;;;;;;4995970;28;20049;-61
2023/04/17 12:14:34;;;;;;;2.28;2.08;;;25.70;38.00;;;;;;4992855;28;20519;-59
2023/04/17 12:17:01;;;;;;;3.50;2.50;;;25.60;38.00;;;;;;4995849;28;20148;-59
2023/04/17 12:19:30;;;;;;;1.95;1.83;;;25.70;38.10;;;;;;4997730;28;20054;-60
2023/04/17 12:21:58;;;;;;;3.63;2.10;;;25.70;38.00;;;;;;4993652;28;20145;-59
2023/04/17 12:24:25;;;;;;;2.50;2.30;;;25.70;37.90;;;;;;4994590;28;20387;-60
2023/04/17 12:26:53;;;;;;;2.35;2.08;;;25.70;37.80;;;;;;4999443;28;20050;-59
2023/04/17 12:29:20;;;;;;;3.35;2.42;;;25.80;37.80;;;;;;4998709;28;20148;-59
2023/04/17 12:32:09;;;;;;;3.28;2.30;;;25.70;37.60;;;;;;4990460;28;20073;-60
2023/04/17 12:34:36;;;;;;;2.60;2.40;;;25.70;37.60;;;;;;4993728;28;20409;-60
2023/04/17 12:37:03;;;;;;;2.55;2.35;;;25.70;37.50;;;;;;4993848;28;20881;-60
2023/04/17 12:39:31;;;;;;;2.22;2.03;;;25.70;37.50;;;;;;4992001;28;20050;-60
2023/04/17 12:41:58;;;;;;;2.88;2.63;;;25.70;37.50;;;;;;4993591;28;21457;-59
2023/04/17 12:44:25;;;;;;;5.03;2.25;;;25.70;37.50;;;;;;4997282;28;20057;-59
2023/04/17 12:46:52;;;;;;;6.45;2.67;;;25.70;37.60;;;;;;4996150;28;20050;-60
2023/04/17 12:49:20;;;;;;;2.58;2.38;;;25.70;37.70;;;;;;4998982;28;20058;-60
2023/04/17 12:51:48;;;;;;;2.45;2.25;;;25.60;37.70;;;;;;5001738;28;20061;-60
2023/04/17 12:54:15;;;;;;;5.28;2.20;;;25.60;38.20;;;;;;4997238;28;20076;-61
2023/04/17 12:56:42;;;;;;;4.95;2.38;;;25.60;38.20;;;;;;4997511;28;20054;-60
2023/04/17 12:59:09;;;;;;;5.90;2.50;;;25.60;38.10;;;;;;5000553;28;20050;-60